createdAt,value
2018-04-19T00:00:50.227Z,6.70
2018-04-19T00:03:16.339Z,6.87
2018-04-19T00:05:42.501Z,7.00
2018-04-19T00:08:09.389Z,6.00
2018-04-19T00:10:35.510Z,6.47
2018-04-19T00:13:01.616Z,5.97
2018-04-19T00:15:27.781Z,5.40
2018-04-19T00:17:53.881Z,5.70
2018-04-19T00:20:19.993Z,6.47
2018-04-19T00:22:46.106Z,5.93
2018-04-19T00:25:12.941Z,6.00
2018-04-19T00:27:40.597Z,4.90
2018-04-19T00:30:08.592Z,4.80
2018-04-19T00:32:34.919Z,5.47
2018-04-19T00:35:01.038Z,5.50
2018-04-19T00:37:27.889Z,4.80
2018-04-19T00:39:54.741Z,5.90
2018-04-19T00:42:20.832Z,5.23
2018-04-19T00:44:46.955Z,4.80
2018-04-19T00:47:13.073Z,4.80
2018-04-19T00:49:39.182Z,4.57
2018-04-19T00:52:05.300Z,4.80
2018-04-19T00:54:31.431Z,3.90
2018-04-19T00:56:57.555Z,5.00
2018-04-19T00:59:23.653Z,4.60
2018-04-19T01:01:49.754Z,5.07
2018-04-19T01:04:16.607Z,4.87
2018-04-19T01:06:43.446Z,4.93
2018-04-19T01:09:10.364Z,4.60
2018-04-19T01:11:36.459Z,4.53
2018-04-19T01:14:02.567Z,4.70
2018-04-19T01:16:28.657Z,3.60
2018-04-19T01:18:55.002Z,3.73
2018-04-19T01:21:21.163Z,4.13
2018-04-19T01:23:47.388Z,4.70
2018-04-19T01:26:13.506Z,4.13
2018-04-19T01:28:39.622Z,4.03
2018-04-19T01:31:05.721Z,4.50
2018-04-19T01:33:31.843Z,4.53
2018-04-19T01:36:10.340Z,3.70
2018-04-19T01:38:36.486Z,3.90
2018-04-19T01:41:02.648Z,4.50
2018-04-19T01:43:28.789Z,4.13
2018-04-19T01:45:54.892Z,4.40
2018-04-19T01:48:20.987Z,5.10
2018-04-19T01:50:47.110Z,5.10
2018-04-19T01:53:13.190Z,4.00
2018-04-19T01:55:39.285Z,4.20
2018-04-19T01:58:06.154Z,4.40
2018-04-19T02:00:32.258Z,4.97
2018-04-19T02:02:59.088Z,4.60
2018-04-19T02:05:25.205Z,4.80
2018-04-19T02:07:51.401Z,4.37
2018-04-19T02:10:17.518Z,5.63
2018-04-19T02:12:43.631Z,5.53
2018-04-19T02:15:09.742Z,4.70
2018-04-19T02:17:35.850Z,4.80
2018-04-19T02:20:01.953Z,5.27
2018-04-19T02:22:28.058Z,4.77
2018-04-19T02:24:54.164Z,4.73
2018-04-19T02:27:20.293Z,5.47
2018-04-19T02:29:46.407Z,5.60
2018-04-19T02:32:12.518Z,6.87
2018-04-19T02:34:39.376Z,5.90
2018-04-19T02:37:05.471Z,5.10
2018-04-19T02:39:31.618Z,5.97
2018-04-19T02:41:57.816Z,5.27
2018-04-19T02:44:23.950Z,4.90
2018-04-19T02:46:50.095Z,5.30
2018-04-19T02:49:16.229Z,5.00
2018-04-19T02:51:42.374Z,5.73
2018-04-19T02:54:08.503Z,5.77
2018-04-19T02:56:34.626Z,5.63
2018-04-19T02:59:00.731Z,6.90
2018-04-19T03:01:26.876Z,6.33
2018-04-19T03:03:53.031Z,6.60
2018-04-19T03:06:19.264Z,6.30
2018-04-19T03:08:45.427Z,5.97
2018-04-19T03:11:11.531Z,6.37
2018-04-19T03:13:37.657Z,5.90
2018-04-19T03:16:03.845Z,6.43
2018-04-19T03:18:30.002Z,6.00
2018-04-19T03:20:56.198Z,5.87
2018-04-19T03:23:22.350Z,5.77
2018-04-19T03:25:48.504Z,7.27
2018-04-19T03:28:15.378Z,6.00
2018-04-19T03:30:41.529Z,6.90
2018-04-19T03:33:07.662Z,6.70
2018-04-19T03:35:33.906Z,7.80
2018-04-19T03:38:00.042Z,7.20
2018-04-19T03:40:26.158Z,6.47
2018-04-19T03:42:52.313Z,6.57
2018-04-19T03:45:18.438Z,5.80
2018-04-19T03:47:44.574Z,6.20
2018-04-19T03:50:10.714Z,7.47
2018-04-19T03:52:36.846Z,6.90
2018-04-19T03:55:03.828Z,6.90
2018-04-19T03:57:29.978Z,6.60
2018-04-19T03:59:56.126Z,7.03
2018-04-19T04:02:22.256Z,7.90
2018-04-19T04:04:49.158Z,6.83
2018-04-19T04:07:15.346Z,8.10
2018-04-19T04:09:42.249Z,7.00
2018-04-19T04:12:08.390Z,7.17
2018-04-19T04:14:34.507Z,7.03
2018-04-19T04:17:27.645Z,6.90
2018-04-19T04:20:05.834Z,8.17
2018-04-19T04:22:45.350Z,7.30
2018-04-19T04:39:59.032Z,7.20
2018-04-19T04:42:31.973Z,8.33
2018-04-19T04:45:00.376Z,7.17
2018-04-19T04:47:28.475Z,6.83
2018-04-19T04:52:59.263Z,7.40
2018-04-19T04:55:31.427Z,8.77
2018-04-19T04:58:25.874Z,8.50
2018-04-19T05:01:09.770Z,7.90
2018-04-19T06:09:18.987Z,9.30
2018-04-19T06:12:03.273Z,8.80
2018-04-19T06:14:34.814Z,8.33
2018-04-19T06:17:15.758Z,9.40
2018-04-19T06:27:48.278Z,8.07
2018-04-19T06:30:14.534Z,6.53
2018-04-19T06:32:40.820Z,6.93
2018-04-19T06:35:13.200Z,5.90
2018-04-19T06:37:39.413Z,5.90
2018-04-19T06:40:24.417Z,6.37
2018-04-19T06:45:34.100Z,4.97
2018-04-19T06:48:05.031Z,5.40
2018-04-19T08:26:40.358Z,4.83
2018-04-19T08:29:11.847Z,3.90
2018-04-19T08:32:11.840Z,3.93
2018-04-19T08:48:29.548Z,3.80
2018-04-19T08:50:58.891Z,4.20
2018-04-19T08:53:39.117Z,4.50
2018-04-19T08:56:19.589Z,3.83
2018-04-19T09:05:04.361Z,4.33
2018-04-19T09:07:34.515Z,5.37
2018-04-19T09:10:12.834Z,4.57
2018-04-19T09:13:01.391Z,4.00
2018-04-19T09:15:39.232Z,4.10
2018-04-19T09:18:11.444Z,4.17
2018-04-19T09:28:47.637Z,3.40
2018-04-19T09:37:00.022Z,3.43
2018-04-19T09:39:34.971Z,3.80
2018-04-19T09:42:09.794Z,3.30
2018-04-19T09:44:36.432Z,3.63
2018-04-19T09:47:02.785Z,3.70
2018-04-19T09:49:28.925Z,4.17
2018-04-19T09:51:56.260Z,3.87
2018-04-19T09:54:23.031Z,3.60
2018-04-19T09:56:50.667Z,3.67
2018-04-19T09:59:19.717Z,3.40
2018-04-19T10:01:51.242Z,4.00
2018-04-19T10:04:23.567Z,3.60
2018-04-19T10:06:50.282Z,3.83
2018-04-19T10:09:16.487Z,4.20
2018-04-19T10:11:43.418Z,3.60
2018-04-19T10:14:10.178Z,3.00
2018-04-19T10:16:36.409Z,6.00
2018-04-19T10:19:02.547Z,3.30
2018-04-19T10:21:28.780Z,2.80
2018-04-19T10:24:00.330Z,3.53
2018-04-19T10:26:26.790Z,3.20
2018-04-19T10:28:52.906Z,3.10
2018-04-19T10:31:20.234Z,3.00
2018-04-19T10:33:46.352Z,3.60
2018-04-19T10:36:13.972Z,3.33
2018-04-19T10:38:43.966Z,3.20
2018-04-19T10:41:12.909Z,4.13
2018-04-19T10:43:39.251Z,3.70
2018-04-19T10:46:05.801Z,4.57
2018-04-19T10:48:31.970Z,4.00
2018-04-19T10:50:58.592Z,3.53
2018-04-19T10:53:25.170Z,3.67
2018-04-19T10:55:52.295Z,3.20
2018-04-19T10:58:18.730Z,3.80
2018-04-19T11:00:45.155Z,3.60
2018-04-19T11:03:11.481Z,3.40
2018-04-19T11:05:37.803Z,3.50
2018-04-19T11:08:04.013Z,2.80
2018-04-19T11:10:30.838Z,3.10
2018-04-19T11:12:58.363Z,3.07
2018-04-19T11:15:25.445Z,3.03
2018-04-19T11:17:52.775Z,3.90
2018-04-19T11:20:21.965Z,2.57
2018-04-19T11:22:50.967Z,3.57
2018-04-19T11:25:19.851Z,6.03
2018-04-19T11:27:46.494Z,3.43
2018-04-19T11:30:15.195Z,3.23
2018-04-19T11:32:46.194Z,3.93
2018-04-19T11:35:16.361Z,2.97
2018-04-19T11:37:45.823Z,3.53
2018-04-19T11:40:15.045Z,2.57
2018-04-19T11:45:19.796Z,2.90
2018-04-19T11:47:52.593Z,2.93
2018-04-19T11:50:20.490Z,3.00
2018-04-19T11:52:49.025Z,2.80
2018-04-19T11:55:26.678Z,2.83
2018-04-19T11:58:00.361Z,3.20
2018-04-19T12:00:30.293Z,2.33
2018-04-19T12:06:03.410Z,3.03
2018-04-19T12:08:38.935Z,3.30
2018-04-19T12:11:25.973Z,3.03
2018-04-19T12:14:14.219Z,2.60
2018-04-19T12:16:43.334Z,2.93
2018-04-19T12:19:09.546Z,2.93
2018-04-19T12:21:36.779Z,2.87
2018-04-19T12:24:03.307Z,2.50
2018-04-19T12:26:32.008Z,3.00
2018-04-19T12:29:00.163Z,2.40
2018-04-19T12:31:26.663Z,2.90
2018-04-19T12:33:57.953Z,2.67
2018-04-19T12:39:07.972Z,2.87
2018-04-19T12:41:36.793Z,2.93
2018-04-19T12:46:40.545Z,3.13
2018-04-19T12:49:11.993Z,2.90
2018-04-19T12:51:39.326Z,2.70
2018-04-19T12:54:08.643Z,2.53
2018-04-19T12:56:36.592Z,2.70
2018-04-19T12:59:03.750Z,3.20
2018-04-19T13:01:31.456Z,3.23
2018-04-19T13:03:59.369Z,3.10
2018-04-19T13:06:28.245Z,3.20
2018-04-19T13:08:54.821Z,3.20
2018-04-19T13:16:55.916Z,2.93
2018-04-19T13:22:14.842Z,2.80
2018-04-19T13:24:45.020Z,3.13
2018-04-19T13:27:20.538Z,2.83
2018-04-19T13:29:54.204Z,3.00
2018-04-19T13:32:20.844Z,2.97
2018-04-19T13:35:00.115Z,2.43
2018-04-19T13:37:33.349Z,2.90
2018-04-19T13:40:00.519Z,2.87
2018-04-19T13:42:33.715Z,2.57
2018-04-19T13:45:01.542Z,2.93
2018-04-19T13:47:30.571Z,3.50
2018-04-19T13:49:57.780Z,2.43
2018-04-19T13:52:24.836Z,2.20
2018-04-19T13:54:52.872Z,2.33
2018-04-19T13:57:22.981Z,3.50
2018-04-19T14:02:23.198Z,2.87
2018-04-19T14:04:50.782Z,2.30
2018-04-19T14:07:17.930Z,2.70
2018-04-19T14:09:45.572Z,2.47
2018-04-19T14:14:49.970Z,2.60
2018-04-19T14:17:18.290Z,2.67
2018-04-19T14:19:52.830Z,2.60
2018-04-19T14:22:20.171Z,3.00
2018-04-19T14:27:27.893Z,2.27
2018-04-19T14:30:09.172Z,2.57
2018-04-19T14:32:43.715Z,3.17
2018-04-19T14:38:02.442Z,2.60
2018-04-19T14:40:30.721Z,3.23
2018-04-19T14:43:03.907Z,2.47
2018-04-19T14:45:31.828Z,3.40
2018-04-19T14:48:06.450Z,2.50
2018-04-19T14:50:40.675Z,2.40
2018-04-19T14:53:16.410Z,3.30
2018-04-19T14:55:56.448Z,3.00
2018-04-19T14:58:31.394Z,3.07
2018-04-19T15:01:00.474Z,2.70
2018-04-19T15:03:36.202Z,2.60
2018-04-19T15:06:04.976Z,2.30
2018-04-19T15:08:38.833Z,2.47
2018-04-19T15:16:50.507Z,2.70
2018-04-19T15:58:45.845Z,2.20
2018-04-19T16:03:49.643Z,3.40
2018-04-19T16:06:16.854Z,1.93
2018-04-19T16:08:44.270Z,2.27
2018-04-19T16:11:11.318Z,2.07
2018-04-19T16:13:37.655Z,1.97
2018-04-19T16:16:06.076Z,2.60
2018-04-19T16:18:32.773Z,2.90
2018-04-19T16:20:59.786Z,2.43
2018-04-19T16:23:27.435Z,3.23
2018-04-19T16:25:56.010Z,2.37
2018-04-19T16:28:22.775Z,2.50
2018-04-19T16:30:51.316Z,2.00
2018-04-19T16:33:18.256Z,2.80
2018-04-19T16:35:45.678Z,2.43
2018-04-19T16:43:31.137Z,1.93
2018-04-19T16:45:57.996Z,2.20
2018-04-19T16:48:36.695Z,2.30
2018-04-19T16:51:03.635Z,1.90
2018-04-19T16:53:37.536Z,2.07
2018-04-19T16:56:06.063Z,2.23
2018-04-19T16:58:38.853Z,2.60
2018-04-19T17:01:07.536Z,3.13
2018-04-19T17:03:38.859Z,2.27
2018-04-19T17:06:05.465Z,3.00
2018-04-19T17:11:09.414Z,2.77
2018-04-19T17:13:39.806Z,2.47
2018-04-19T17:16:16.266Z,3.03
2018-04-19T17:21:24.218Z,2.40
2018-04-19T17:23:57.876Z,2.87
2018-04-19T17:26:26.521Z,2.80
2018-04-19T17:31:40.430Z,2.60
2018-04-19T17:34:11.892Z,2.47
2018-04-19T17:36:47.624Z,2.70
2018-04-19T17:39:15.995Z,2.90
2018-04-19T17:44:33.063Z,3.03
2018-04-19T17:47:14.932Z,3.07
2018-04-19T17:49:59.447Z,3.43
2018-04-19T17:52:27.905Z,5.40
2018-04-19T18:00:30.781Z,3.33
2018-04-19T18:08:31.971Z,3.67
2018-04-19T18:11:04.303Z,3.80
2018-04-19T18:13:36.761Z,3.10
2018-04-19T18:16:12.787Z,3.00
2018-04-19T18:18:45.669Z,3.37
2018-04-19T18:21:13.045Z,4.00
2018-04-19T18:23:40.651Z,3.87
2018-04-19T18:26:07.172Z,4.27
2018-04-19T18:28:34.006Z,3.80
2018-04-19T18:31:01.718Z,4.03
2018-04-19T18:33:31.451Z,4.70
2018-04-19T18:36:01.105Z,3.90
2018-04-19T18:38:36.222Z,5.10
2018-04-19T18:41:04.946Z,4.73
2018-04-19T18:43:34.352Z,4.60
2018-04-19T18:46:02.860Z,4.83
2018-04-19T18:48:38.269Z,4.37
2018-04-19T18:51:05.526Z,5.40
2018-04-19T18:53:37.029Z,5.40
2018-04-19T18:59:19.345Z,4.93
2018-04-19T19:02:03.498Z,4.50
2018-04-19T19:21:41.964Z,5.43
2018-04-19T19:24:12.446Z,5.57
2018-04-19T19:26:39.620Z,5.13
2018-04-19T19:29:07.722Z,5.20
2018-04-19T19:31:33.943Z,4.83
2018-04-19T19:34:00.090Z,5.97
2018-04-19T19:39:23.087Z,6.00
2018-04-19T23:34:19.847Z,6.60
2018-04-19T23:36:46.034Z,6.30
2018-04-19T23:39:13.001Z,6.73
2018-04-19T23:41:40.509Z,6.43
2018-04-19T23:44:06.774Z,6.10
2018-04-19T23:46:33.022Z,6.83
2018-04-19T23:48:59.242Z,7.30
2018-04-19T23:51:25.454Z,7.00
2018-04-19T23:53:52.554Z,8.40
2018-04-19T23:56:18.826Z,6.10
2018-04-19T23:58:45.239Z,5.97
